Time;durP1;ratioP1;P1;durP2;ratioP2;P2;SDS_P1;SDS_P2;PMS_P1;PMS_P2;Temp;Humidity;BMP_temperature;BMP_pressure;BME280_temperature;BME280_humidity;BME280_pressure;Samples;Min_cycle;Max_cycle;Signal;HPM_P1;HPM_P2
2022/03/21 00:00:38;;;;;;;31.05;19.90;;;;;;;12.14;48.31;101253.22;5109706;28;20507;-60
2022/03/21 00:03:07;;;;;;;27.20;20.17;;;;;;;12.15;47.65;101249.66;5111205;28;20058;-61
2022/03/21 00:05:35;;;;;;;28.85;19.67;;;;;;;12.12;47.91;101243.56;5109714;28;20544;-58
2022/03/21 00:08:02;;;;;;;25.58;18.85;;;;;;;12.12;47.68;101243.56;5109552;28;20514;-59
2022/03/21 00:10:32;;;;;;;31.05;19.88;;;;;;;12.11;47.78;101252.41;5110894;28;20055;-59
2022/03/21 00:13:00;;;;;;;31.90;20.17;;;;;;;12.12;47.80;101251.47;5110185;28;20055;-58
2022/03/21 00:15:32;;;;;;;29.40;20.52;;;;;;;12.10;48.43;101255.97;5111092;28;20135;-59
2022/03/21 00:18:01;;;;;;;26.65;19.17;;;;;;;12.14;47.96;101261.97;5110345;28;20043;-59
2022/03/21 00:20:29;;;;;;;27.58;18.10;;;;;;;12.13;48.01;101249.72;5110788;28;20100;-59
2022/03/21 00:22:56;;;;;;;29.90;19.15;;;;;;;12.12;47.84;101248.00;5110661;28;20040;-59
2022/03/21 00:25:23;;;;;;;26.17;18.50;;;;;;;12.12;47.89;101264.66;5109753;28;20408;-60
2022/03/21 00:27:53;;;;;;;31.48;18.98;;;;;;;12.11;47.97;101257.69;5110661;28;20039;-59
2022/03/21 00:30:20;;;;;;;25.90;17.45;;;;;;;12.12;47.92;101254.13;5110746;28;20051;-60
2022/03/21 00:32:47;;;;;;;27.70;19.73;;;;;;;12.11;47.90;101248.88;5110438;28;20051;-59
2022/03/21 00:35:15;;;;;;;25.25;18.35;;;;;;;12.10;47.86;101241.91;5110752;28;20043;-59
2022/03/21 00:37:44;;;;;;;27.05;18.52;;;;;;;12.07;48.36;101236.75;5109431;28;20051;-61
2022/03/21 00:40:12;;;;;;;24.08;16.60;;;;;;;12.08;48.00;101238.47;5109375;28;20055;-59
2022/03/21 00:42:40;;;;;;;25.90;16.83;;;;;;;12.06;47.95;101240.31;5109527;28;20047;-59
2022/03/21 00:45:12;;;;;;;22.13;15.18;;;;;;;12.05;48.23;101254.38;5109513;28;20051;-59
2022/03/21 00:47:39;;;;;;;27.52;17.40;;;;;;;12.03;47.70;101251.81;5110484;28;20048;-59
2022/03/21 00:50:09;;;;;;;29.85;19.55;;;;;;;12.01;47.96;101252.78;5109058;28;20047;-61
2022/03/21 00:52:44;;;;;;;30.40;20.95;;;;;;;11.92;48.93;101248.75;5110483;28;20436;-61
2022/03/21 00:55:13;;;;;;;29.27;20.20;;;;;;;11.89;48.27;101249.69;5109375;28;20051;-59
2022/03/21 00:57:42;;;;;;;34.10;22.63;;;;;;;11.82;48.46;101254.34;5109225;28;20089;-59
2022/03/21 01:00:12;;;;;;;36.85;23.17;;;;;;;11.73;49.02;101252.94;5110089;28;20051;-59
2022/03/21 01:02:39;;;;;;;34.55;25.20;;;;;;;11.67;49.10;101252.31;5109078;28;20039;-60
2022/03/21 01:05:07;;;;;;;39.75;26.10;;;;;;;11.61;49.24;101253.41;5109153;28;20616;-59
2022/03/21 01:07:35;;;;;;;36.85;23.70;;;;;;;11.57;49.48;101249.16;5109108;28;20095;-60
2022/03/21 01:10:04;;;;;;;38.25;24.27;;;;;;;11.53;49.55;101243.13;5110157;28;20465;-58
2022/03/21 01:12:31;;;;;;;32.60;22.10;;;;;;;11.53;49.48;101243.13;5108911;28;20578;-59
2022/03/21 01:15:00;;;;;;;31.30;21.98;;;;;;;11.51;49.67;101242.31;5110278;28;20051;-59
2022/03/21 01:17:27;;;;;;;31.88;24.38;;;;;;;11.52;49.82;101240.56;5110395;28;20384;-59
2022/03/21 01:19:54;;;;;;;34.28;22.80;;;;;;;11.52;49.76;101241.44;5110368;28;20108;-58
2022/03/21 01:22:21;;;;;;;32.65;21.65;;;;;;;11.54;49.91;101238.69;5110267;28;20048;-61
2022/03/21 01:24:48;;;;;;;29.30;19.02;;;;;;;11.53;49.61;101237.00;5110316;28;20059;-59
2022/03/21 01:27:14;;;;;;;28.30;19.02;;;;;;;11.54;49.51;101231.66;5110006;28;20096;-59
2022/03/21 01:29:41;;;;;;;31.55;21.05;;;;;;;11.54;49.54;101234.31;5113419;28;20056;-60
2022/03/21 01:32:08;;;;;;;26.65;19.60;;;;;;;11.53;49.61;101237.00;5114091;28;20055;-59
2022/03/21 01:34:34;;;;;;;30.48;18.88;;;;;;;11.52;49.67;101236.16;5114078;28;20100;-59
2022/03/21 01:37:01;;;;;;;23.55;16.35;;;;;;;11.51;49.47;101237.03;5113974;28;20100;-61
2022/03/21 01:39:31;;;;;;;26.23;16.25;;;;;;;11.52;49.46;101246.69;5113653;28;20865;-60
2022/03/21 01:41:58;;;;;;;24.67;16.40;;;;;;;11.54;49.81;101255.41;5113754;28;20051;-59
2022/03/21 01:44:25;;;;;;;24.35;16.20;;;;;;;11.55;49.73;101248.34;5114043;28;20592;-59
2022/03/21 01:46:52;;;;;;;26.75;17.90;;;;;;;11.55;49.70;101251.84;5113474;28;20044;-59
2022/03/21 01:49:19;;;;;;;28.30;17.13;;;;;;;11.55;49.98;101249.19;5113688;28;20514;-59
2022/03/21 01:51:46;;;;;;;26.83;17.20;;;;;;;11.56;50.12;101250.06;5113655;28;20075;-60
2022/03/21 01:56:58;;;;;;;25.13;14.60;;;;;;;11.54;49.38;101252.75;5113536;28;20541;-59
2022/03/21 01:59:25;;;;;;;23.38;14.85;;;;;;;11.54;49.53;101254.53;5113354;28;20047;-59
2022/03/21 02:01:52;;;;;;;20.40;14.38;;;;;;;11.52;49.30;101251.97;5111813;28;20056;-60
2022/03/21 02:04:19;;;;;;;21.08;13.50;;;;;;;11.51;49.25;101250.22;5113475;27;20084;-58
2022/03/21 02:06:45;;;;;;;20.05;14.05;;;;;;;11.49;49.29;101252.06;5113281;28;20094;-59
2022/03/21 02:09:12;;;;;;;23.20;15.85;;;;;;;11.49;49.29;101257.34;5113091;28;20044;-59
2022/03/21 02:11:39;;;;;;;22.25;14.73;;;;;;;11.47;49.20;101253.91;5113445;28;20114;-59
2022/03/21 02:14:08;;;;;;;26.75;16.45;;;;;;;11.46;49.10;101246.91;5111944;28;20063;-60
2022/03/21 02:16:35;;;;;;;24.00;15.95;;;;;;;11.45;49.13;101250.47;5111611;28;20043;-60
2022/03/21 02:19:26;;;;;;;25.25;16.52;;;;;;;11.38;49.49;101239.28;5111897;28;20104;-59
2022/03/21 02:22:26;;;;;;;22.73;14.63;;;;;;;11.35;49.67;101242.03;5111798;28;20051;-59
2022/03/21 02:25:17;;;;;;;24.10;14.65;;;;;;;11.33;49.76;101239.44;5113392;28;20117;-58
2022/03/21 02:27:46;;;;;;;24.63;15.88;;;;;;;11.32;49.15;101248.28;5113060;28;20059;-60
2022/03/21 02:30:14;;;;;;;23.30;14.68;;;;;;;11.31;49.16;101235.16;5111639;28;20574;-59
2022/03/21 02:32:42;;;;;;;22.63;15.32;;;;;;;11.28;49.22;101232.59;5111765;28;20047;-60
2022/03/21 02:35:10;;;;;;;25.27;15.93;;;;;;;11.26;49.42;101235.31;5112854;28;20054;-59
2022/03/21 02:37:39;;;;;;;22.33;16.10;;;;;;;11.26;49.34;101234.44;5112952;28;20511;-61
2022/03/21 02:40:08;;;;;;;28.88;16.10;;;;;;;11.25;49.21;101233.59;5110668;28;20121;-59
2022/03/21 02:42:35;;;;;;;24.55;15.63;;;;;;;11.24;49.12;101226.59;5112662;28;20449;-59
2022/03/21 02:45:02;;;;;;;25.33;15.80;;;;;;;11.20;49.21;101222.34;5112773;28;20108;-60
2022/03/21 02:47:28;;;;;;;25.65;15.77;;;;;;;11.18;49.28;101221.56;5112618;28;20047;-59
2022/03/21 02:49:57;;;;;;;27.15;17.73;;;;;;;11.14;49.28;101219.94;5112217;28;20124;-59
2022/03/21 02:52:26;;;;;;;26.15;17.80;;;;;;;11.10;49.81;101226.25;5112442;28;20104;-59
2022/03/21 02:54:53;;;;;;;26.88;18.27;;;;;;;11.07;49.65;101219.31;5112357;28;20051;-61
2022/03/21 02:57:19;;;;;;;28.40;19.55;;;;;;;11.03;49.85;101225.59;5112626;28;20047;-59
2022/03/21 02:59:46;;;;;;;27.48;19.98;;;;;;;11.00;49.75;101223.94;5112177;28;20684;-59
2022/03/21 03:02:13;;;;;;;29.48;19.25;;;;;;;10.97;49.88;101224.03;5112205;28;20051;-60
2022/03/21 03:04:40;;;;;;;30.05;18.90;;;;;;;10.93;50.04;101228.56;5112068;28;20487;-59
2022/03/21 03:07:06;;;;;;;24.63;16.33;;;;;;;10.91;50.02;101230.38;5111991;28;20540;-60
2022/03/21 03:09:33;;;;;;;25.35;17.88;;;;;;;10.90;50.46;101227.78;5111857;27;20101;-60
2022/03/21 03:12:00;;;;;;;26.25;17.40;;;;;;;10.89;50.59;101226.06;5112204;28;20070;-59
2022/03/21 03:14:27;;;;;;;26.17;18.08;;;;;;;10.91;50.43;101229.50;5112252;28;20063;-60
2022/03/21 03:16:53;;;;;;;28.63;17.63;;;;;;;10.91;50.45;101226.88;5111980;28;20555;-59
2022/03/21 03:19:20;;;;;;;25.58;18.58;;;;;;;10.92;50.20;101233.88;5111621;28;20044;-59
2022/03/21 03:21:49;;;;;;;25.98;17.65;;;;;;;10.91;50.69;101237.41;5111697;28;20055;-60
2022/03/21 03:24:19;;;;;;;28.63;18.48;;;;;;;10.91;50.67;101234.78;5111680;28;20100;-60
2022/03/21 03:26:46;;;;;;;28.35;18.02;;;;;;;10.92;50.19;101239.16;5110516;28;20446;-59
2022/03/21 03:29:18;;;;;;;26.77;17.20;;;;;;;10.93;50.18;101240.88;5111401;28;20048;-62
2022/03/21 03:31:45;;;;;;;30.35;18.13;;;;;;;10.93;50.18;101247.00;5111787;28;20044;-60
2022/03/21 03:34:12;;;;;;;30.42;17.95;;;;;;;10.94;50.41;101243.44;5112031;28;20440;-60
2022/03/21 03:36:39;;;;;;;28.85;19.50;;;;;;;10.96;50.30;101240.78;5111386;28;20093;-58
2022/03/21 03:39:06;;;;;;;30.20;19.23;;;;;;;10.96;50.37;101240.78;5111533;28;20484;-62
2022/03/21 03:41:32;;;;;;;31.33;19.98;;;;;;;10.96;49.97;101243.41;5110121;28;20047;-59
2022/03/21 03:43:59;;;;;;;31.23;19.38;;;;;;;10.94;49.89;101246.09;5111347;28;20056;-60
2022/03/21 03:46:26;;;;;;;31.75;20.70;;;;;;;10.91;49.75;101237.41;5111488;28;20476;-58
2022/03/21 03:48:54;;;;;;;31.40;20.35;;;;;;;10.87;49.86;101244.56;5111189;28;20055;-59
2022/03/21 03:51:21;;;;;;;31.50;20.77;;;;;;;10.84;49.83;101233.28;5110900;28;20044;-58
2022/03/21 03:53:48;;;;;;;33.58;21.70;;;;;;;10.77;49.94;101238.75;5111713;28;20594;-60
2022/03/21 03:56:19;;;;;;;32.63;21.10;;;;;;;10.73;49.84;101237.13;5111349;28;20053;-59
2022/03/21 03:58:46;;;;;;;33.60;21.17;;;;;;;10.68;49.76;101236.41;5111083;28;20100;-59
2022/03/21 04:01:12;;;;;;;35.00;21.83;;;;;;;10.61;49.94;101238.41;5111055;28;20051;-59
2022/03/21 04:03:45;;;;;;;31.88;21.08;;;;;;;10.55;49.95;101236.00;5111147;28;20066;-60
2022/03/21 04:06:22;;;;;;;33.65;21.73;;;;;;;10.45;50.73;101230.16;5111351;28;20043;-58
2022/03/21 04:08:51;;;;;;;34.42;21.60;;;;;;;10.42;49.91;101228.47;5111211;28;20051;-58
2022/03/21 04:11:19;;;;;;;36.08;22.60;;;;;;;10.37;50.18;101235.66;5109458;28;20097;-59
2022/03/21 04:13:46;;;;;;;37.22;22.17;;;;;;;10.32;50.11;101232.28;5110949;28;20043;-59
2022/03/21 04:16:16;;;;;;;33.90;23.50;;;;;;;10.24;50.27;101229.91;5109584;28;20050;-59
2022/03/21 04:18:43;;;;;;;37.17;23.23;;;;;;;10.20;50.24;101235.31;5109619;28;20503;-59
2022/03/21 04:21:25;;;;;;;35.78;22.73;;;;;;;10.13;50.55;101234.66;5110865;28;20045;-59
2022/03/21 04:23:52;;;;;;;38.05;24.48;;;;;;;10.07;50.74;101237.47;5109656;28;20048;-59
2022/03/21 04:26:19;;;;;;;35.05;23.75;;;;;;;10.02;50.94;101238.47;5110697;28;20099;-59
2022/03/21 04:28:46;;;;;;;37.25;24.15;;;;;;;10.00;50.93;101242.06;5110617;28;20079;-59
2022/03/21 04:31:12;;;;;;;37.33;25.58;;;;;;;9.95;50.87;101239.59;5110442;28;20391;-59
2022/03/21 04:33:39;;;;;;;38.13;25.20;;;;;;;9.90;51.11;101244.97;5110829;28;20044;-62
2022/03/21 04:36:06;;;;;;;38.22;25.35;;;;;;;9.85;50.86;101238.13;5110711;28;20048;-59
2022/03/21 04:38:32;;;;;;;41.58;24.52;;;;;;;9.82;51.22;101240.84;5110647;28;20043;-59
2022/03/21 04:40:59;;;;;;;39.00;25.52;;;;;;;9.76;51.13;101237.47;5110357;28;20046;-60
2022/03/21 04:43:25;;;;;;;38.13;26.05;;;;;;;9.74;51.23;101244.56;5110511;28;20047;-59
2022/03/21 04:45:52;;;;;;;39.30;25.85;;;;;;;9.71;51.22;101247.28;5110842;28;20055;-59
2022/03/21 04:48:20;;;;;;;39.97;26.45;;;;;;;9.69;51.37;101248.25;5110618;28;20389;-58
2022/03/21 04:50:46;;;;;;;37.13;25.73;;;;;;;9.65;51.13;101248.31;5110231;28;20096;-58
2022/03/21 04:53:14;;;;;;;43.08;25.20;;;;;;;9.62;51.25;101252.81;5110607;28;20542;-58
2022/03/21 04:55:41;;;;;;;38.50;26.17;;;;;;;9.57;51.22;101247.69;5109219;28;20083;-59
2022/03/21 04:58:08;;;;;;;42.72;27.35;;;;;;;9.52;51.72;101245.19;5110642;28;20113;-59
2022/03/21 05:00:36;;;;;;;42.00;27.80;;;;;;;9.49;51.77;101242.66;5109271;28;20043;-59
2022/03/21 05:03:07;;;;;;;38.72;26.20;;;;;;;9.47;51.95;101244.47;5110309;28;20087;-59
2022/03/21 05:05:42;;;;;;;39.80;26.48;;;;;;;9.46;52.02;101253.25;5113418;28;20058;-59
2022/03/21 05:08:10;;;;;;;42.05;27.05;;;;;;;9.45;51.80;101256.78;5114211;28;20060;-58
2022/03/21 05:10:36;;;;;;;43.85;27.85;;;;;;;9.44;51.94;101259.44;5113118;28;20121;-59
2022/03/21 05:13:03;;;;;;;43.65;28.15;;;;;;;9.42;52.09;101251.59;5114583;28;20104;-59
2022/03/21 05:15:30;;;;;;;40.10;25.50;;;;;;;9.42;51.74;101270.00;5113234;28;20054;-59
2022/03/21 05:17:57;;;;;;;39.78;25.98;;;;;;;9.41;51.62;101264.81;5114314;28;20066;-59
2022/03/21 05:20:25;;;;;;;36.78;24.00;;;;;;;9.39;51.56;101262.22;5114070;28;20059;-60
2022/03/21 05:31:10;;;;;;;31.08;20.10;;;;;;;9.41;51.04;101275.31;5113524;28;20105;-58
2022/03/21 05:36:28;;;;;;;33.38;22.00;;;;;;;9.43;51.04;101278.75;5113801;28;20054;-58
2022/03/21 05:38:57;;;;;;;30.23;18.90;;;;;;;9.44;50.94;101275.22;5112808;28;20062;-59
2022/03/21 05:41:24;;;;;;;28.75;19.42;;;;;;;9.44;50.87;101273.47;5112328;28;20127;-60
2022/03/21 05:43:50;;;;;;;31.52;20.40;;;;;;;9.46;50.80;101281.31;5113673;28;20052;-61
2022/03/21 05:46:18;;;;;;;27.83;19.67;;;;;;;9.47;50.75;101285.66;5113693;28;20044;-59
2022/03/21 05:48:51;;;;;;;31.00;21.15;;;;;;;9.48;50.77;101282.13;5113599;28;20131;-61
2022/03/21 05:51:23;;;;;;;33.03;20.17;;;;;;;9.49;50.59;101283.81;5112254;28;20445;-59
2022/03/21 05:53:51;;;;;;;32.75;20.10;;;;;;;9.49;50.58;101279.44;5113957;27;20059;-60
2022/03/21 05:56:19;;;;;;;28.13;19.30;;;;;;;9.51;50.53;101285.53;5112175;28;20082;-59
2022/03/21 05:58:45;;;;;;;30.63;19.60;;;;;;;9.51;50.59;101287.28;5112407;28;20063;-59
2022/03/21 06:01:15;;;;;;;29.27;20.42;;;;;;;9.51;50.71;101287.28;5113537;28;20047;-59
2022/03/21 06:03:43;;;;;;;33.90;18.65;;;;;;;9.51;50.67;101285.53;5113390;28;20053;-59
2022/03/21 06:06:10;;;;;;;31.45;19.73;;;;;;;9.52;50.61;101286.38;5113467;28;20104;-59
2022/03/21 06:08:37;;;;;;;28.38;18.10;;;;;;;9.53;50.43;101285.47;5111692;28;20856;-61
2022/03/21 06:11:03;;;;;;;31.38;19.40;;;;;;;9.54;50.50;101299.50;5112908;28;20487;-60
2022/03/21 06:13:32;;;;;;;31.52;20.83;;;;;;;9.54;50.66;101297.72;5113378;27;20405;-60
2022/03/21 06:16:04;;;;;;;26.13;17.73;;;;;;;9.54;50.39;101302.13;5111022;28;20055;-59
2022/03/21 06:18:32;;;;;;;28.98;16.25;;;;;;;9.58;50.05;101312.50;5113275;28;20133;-59
2022/03/21 06:21:03;;;;;;;26.85;17.65;;;;;;;9.57;49.80;101305.50;5111617;28;20411;-61
2022/03/21 06:23:30;;;;;;;25.88;17.05;;;;;;;9.60;50.13;101300.19;5111642;28;20058;-59
2022/03/21 06:25:58;;;;;;;27.05;18.38;;;;;;;9.61;50.22;101299.25;5113404;28;20066;-58
2022/03/21 06:28:26;;;;;;;25.67;17.60;;;;;;;9.62;49.99;101308.03;5111701;28;20537;-60
2022/03/21 06:30:54;;;;;;;29.25;16.77;;;;;;;9.64;50.04;101306.19;5112294;28;20044;-59
2022/03/21 06:33:25;;;;;;;24.75;17.60;;;;;;;9.63;49.99;101318.50;5111407;28;20056;-59
2022/03/21 06:35:53;;;;;;;23.60;16.30;;;;;;;9.67;49.63;101323.66;5111512;28;20096;-59
2022/03/21 06:38:20;;;;;;;23.60;16.95;;;;;;;9.68;49.83;101323.63;5113097;28;20147;-61
2022/03/21 06:40:47;;;;;;;23.27;16.17;;;;;;;9.70;49.88;101321.81;5112727;28;20047;-59
2022/03/21 06:43:15;;;;;;;27.15;16.73;;;;;;;9.74;49.79;101330.47;5112733;28;20059;-60
2022/03/21 06:45:47;;;;;;;21.80;14.82;;;;;;;9.75;49.06;101325.19;5111486;28;20514;-60
2022/03/21 06:48:14;;;;;;;22.10;13.95;;;;;;;9.81;49.50;101323.28;5112661;28;20628;-62
2022/03/21 06:50:41;;;;;;;23.92;14.95;;;;;;;9.85;49.51;101322.28;5112523;28;20071;-59
2022/03/21 06:53:07;;;;;;;22.85;14.13;;;;;;;9.90;49.60;101317.75;5113073;28;20055;-59
2022/03/21 06:55:34;;;;;;;21.42;15.10;;;;;;;9.95;49.05;101322.88;5112657;28;20056;-61
2022/03/21 06:58:03;;;;;;;23.65;15.23;;;;;;;9.98;49.27;101318.38;5112475;28;20055;-60
2022/03/21 07:00:31;;;;;;;22.77;14.55;;;;;;;10.04;48.83;101325.25;5110886;28;20245;-59
2022/03/21 07:02:58;;;;;;;22.35;14.38;;;;;;;10.10;48.71;101326.84;5110800;28;20512;-62
2022/03/21 07:05:26;;;;;;;20.38;14.10;;;;;;;10.14;48.55;101325.84;5112332;27;20452;-60
2022/03/21 07:07:52;;;;;;;22.58;14.32;;;;;;;10.20;48.73;101332.69;5112118;28;20426;-61
2022/03/21 07:10:19;;;;;;;19.30;12.68;;;;;;;10.25;48.24;101334.25;5111899;28;20435;-59
2022/03/21 07:12:45;;;;;;;22.85;13.70;;;;;;;10.31;48.24;101335.84;5112074;28;20428;-59
2022/03/21 07:15:12;;;;;;;23.33;13.93;;;;;;;10.36;47.65;101326.03;5112116;28;20051;-60
2022/03/21 07:17:42;;;;;;;20.90;13.95;;;;;;;10.41;47.33;101332.03;5110908;28;20150;-60
2022/03/21 07:20:12;;;;;;;24.45;14.18;;;;;;;10.48;47.62;101329.22;5111921;28;20463;-60
2022/03/21 07:22:39;;;;;;;20.85;14.27;;;;;;;10.54;47.68;101322.00;5110880;28;20146;-61
2022/03/21 07:25:07;;;;;;;22.05;14.70;;;;;;;10.60;47.70;101325.34;5112309;28;20047;-59
2022/03/21 07:27:34;;;;;;;20.17;14.32;;;;;;;10.65;47.64;101337.47;5108416;28;20056;-58
2022/03/21 07:30:00;;;;;;;19.67;13.57;;;;;;;10.69;47.20;101333.81;5110811;28;20051;-59
2022/03/21 07:32:27;;;;;;;20.70;14.20;;;;;;;10.76;47.08;101331.00;5111304;28;20096;-59
2022/03/21 07:34:54;;;;;;;19.77;13.75;;;;;;;10.80;46.67;101338.75;5111509;28;20560;-60
2022/03/21 07:37:20;;;;;;;23.95;14.20;;;;;;;10.86;47.00;101336.81;5111322;28;20502;-61
2022/03/21 07:39:47;;;;;;;19.48;13.75;;;;;;;10.92;46.89;101341.91;5111059;28;20519;-60
2022/03/21 07:42:16;;;;;;;23.05;14.20;;;;;;;10.98;46.58;101343.47;5110838;28;20448;-59
2022/03/21 07:47:28;;;;;;;21.30;14.00;;;;;;;11.12;46.78;101346.50;5111220;28;20527;-59
2022/03/21 07:49:56;;;;;;;25.02;15.13;;;;;;;11.19;46.64;101341.88;5110768;28;20059;-62
2022/03/21 07:52:23;;;;;;;23.90;15.38;;;;;;;11.25;46.37;101340.81;5111616;28;20448;-59
2022/03/21 07:54:53;;;;;;;21.05;14.60;;;;;;;11.29;45.99;101345.91;5111342;28;20048;-61
2022/03/21 07:57:26;;;;;;;22.25;15.05;;;;;;;11.34;45.94;101337.84;5111384;28;20054;-59
2022/03/21 07:59:53;;;;;;;20.90;14.50;;;;;;;11.40;45.63;101348.19;5111413;28;20059;-60
2022/03/21 08:02:21;;;;;;;24.75;15.07;;;;;;;11.45;45.58;101340.13;5111240;28;20048;-60
2022/03/21 08:04:50;;;;;;;25.45;15.52;;;;;;;11.51;45.49;101344.31;5110057;28;20143;-59
2022/03/21 08:07:23;;;;;;;24.45;14.93;;;;;;;11.56;45.56;101345.84;5111079;28;20055;-61
2022/03/21 08:09:50;;;;;;;21.58;14.68;;;;;;;11.61;45.42;101345.69;5110777;28;20461;-61
2022/03/21 08:12:16;;;;;;;21.95;14.52;;;;;;;11.68;45.18;101346.34;5111490;28;20059;-60
2022/03/21 08:14:43;;;;;;;19.70;14.73;;;;;;;11.73;45.41;101344.41;5111318;28;20055;-60
2022/03/21 08:17:10;;;;;;;23.33;14.93;;;;;;;11.80;45.45;101343.25;5111246;28;20051;-61
2022/03/21 08:19:36;;;;;;;20.08;14.55;;;;;;;11.86;45.42;101352.75;5110797;28;20055;-60
2022/03/21 08:22:07;;;;;;;22.35;15.18;;;;;;;11.92;45.30;101344.59;5110474;28;20384;-59
2022/03/21 08:24:35;;;;;;;20.88;14.05;;;;;;;11.99;44.93;101343.44;5110074;28;20083;-60
2022/03/21 08:27:05;;;;;;;22.60;14.77;;;;;;;12.06;44.99;101351.16;5110513;28;20098;-59
2022/03/21 08:29:32;;;;;;;19.55;13.98;;;;;;;12.15;44.90;101349.97;5110643;28;20435;-60
2022/03/21 08:31:59;;;;;;;20.50;13.75;;;;;;;12.22;45.04;101349.66;5109617;28;20051;-60
2022/03/21 08:34:26;;;;;;;20.55;14.18;;;;;;;12.31;44.87;101351.09;5109591;28;20051;-60
2022/03/21 08:36:53;;;;;;;21.65;14.25;;;;;;;12.40;44.72;101356.94;5110648;28;20108;-60
2022/03/21 08:39:19;;;;;;;19.85;13.63;;;;;;;12.48;44.39;101358.34;5110170;28;20446;-59
2022/03/21 08:41:46;;;;;;;19.10;13.32;;;;;;;12.57;44.35;101357.13;5110908;28;20512;-60
2022/03/21 08:44:12;;;;;;;18.63;13.13;;;;;;;12.65;44.02;101348.91;5109960;28;20466;-61
2022/03/21 08:46:39;;;;;;;20.70;13.88;;;;;;;12.72;44.05;101349.50;5109734;28;20104;-60
2022/03/21 08:49:26;;;;;;;17.55;13.18;;;;;;;12.81;43.54;101348.25;5109908;28;20047;-61
2022/03/21 08:51:58;;;;;;;17.65;12.88;;;;;;;12.91;43.22;101346.97;5110448;28;20059;-60
2022/03/21 08:54:26;;;;;;;17.10;12.55;;;;;;;12.98;43.02;101344.94;5110553;28;20043;-62
2022/03/21 08:56:52;;;;;;;16.08;12.63;;;;;;;13.06;43.16;101348.13;5110466;28;20055;-60
2022/03/21 08:59:19;;;;;;;19.48;12.82;;;;;;;13.13;42.96;101351.38;5110221;28;20059;-60
2022/03/21 09:01:46;;;;;;;17.70;12.93;;;;;;;13.21;42.72;101348.41;5110290;28;20044;-59
2022/03/21 09:04:13;;;;;;;16.90;13.10;;;;;;;13.27;42.99;101346.34;5110096;28;20052;-60
2022/03/21 09:06:40;;;;;;;19.35;13.23;;;;;;;13.33;42.25;101353.16;5110462;28;20048;-59
2022/03/21 09:09:07;;;;;;;17.90;12.95;;;;;;;13.40;42.40;101349.34;5110354;28;20442;-62
2022/03/21 09:11:34;;;;;;;17.25;13.05;;;;;;;13.48;42.22;101351.69;5110327;28;20047;-60
2022/03/21 09:14:02;;;;;;;16.33;12.48;;;;;;;13.55;41.83;101349.63;5109707;28;20648;-60
2022/03/21 09:16:29;;;;;;;18.73;12.75;;;;;;;13.62;41.74;101350.19;5109107;28;20051;-60
2022/03/21 09:18:56;;;;;;;15.05;11.35;;;;;;;13.71;41.32;101356.88;5109856;28;20544;-60
2022/03/21 09:21:23;;;;;;;18.60;13.15;;;;;;;13.77;41.73;101352.19;5109889;28;20070;-60
2022/03/21 09:23:50;;;;;;;17.85;13.10;;;;;;;13.85;41.79;101357.13;5110000;28;20071;-61
2022/03/21 09:26:17;;;;;;;17.27;13.13;;;;;;;13.92;41.40;101347.97;5110180;28;20051;-60
2022/03/21 09:28:44;;;;;;;17.40;13.30;;;;;;;13.99;41.04;101352.97;5109666;28;20655;-61
2022/03/21 09:31:13;;;;;;;17.55;13.48;;;;;;;14.03;41.05;101355.44;5108875;28;20477;-60
2022/03/21 09:34:00;;;;;;;21.23;14.32;;;;;;;14.08;40.27;101355.19;5110480;28;20106;-59
2022/03/21 09:36:27;;;;;;;18.70;13.70;;;;;;;14.12;40.38;101354.13;5108784;28;20079;-61
2022/03/21 09:38:54;;;;;;;18.25;13.10;;;;;;;14.17;40.34;101356.59;5110282;28;20058;-61
2022/03/21 09:41:29;;;;;;;21.05;12.75;;;;;;;14.19;39.95;101360.88;5109787;28;20116;-60
2022/03/21 09:43:57;;;;;;;16.90;12.55;;;;;;;14.28;40.48;101364.03;5109952;28;20048;-68
2022/03/21 09:46:24;;;;;;;20.05;14.40;;;;;;;14.35;40.11;101364.59;5110139;28;20043;-62
2022/03/21 09:48:53;;;;;;;17.23;13.45;;;;;;;14.39;40.56;101367.00;5110407;28;20430;-60
2022/03/21 09:51:28;;;;;;;22.42;14.13;;;;;;;14.45;39.80;101361.44;5113437;28;20071;-63
2022/03/21 09:53:57;;;;;;;20.80;14.13;;;;;;;14.54;40.27;101359.28;5112366;28;20453;-61
2022/03/21 09:56:26;;;;;;;20.13;13.75;;;;;;;14.59;39.03;101358.09;5112285;28;20051;-60
2022/03/21 09:58:59;;;;;;;19.63;14.98;;;;;;;14.68;39.99;101364.75;5113510;28;20051;-61
2022/03/21 10:01:31;;;;;;;21.42;14.07;;;;;;;14.73;38.62;101365.41;5113395;28;20052;-61
2022/03/21 10:03:59;;;;;;;20.83;14.85;;;;;;;14.84;39.75;101366.72;5112099;28;20082;-62
2022/03/21 10:06:44;;;;;;;19.73;14.20;;;;;;;14.89;38.69;101362.03;5113717;28;20055;-68
2022/03/21 10:09:10;;;;;;;19.80;14.02;;;;;;;15.01;39.33;101365.00;5111690;28;20051;-61
2022/03/21 10:11:39;;;;;;;21.35;15.02;;;;;;;15.08;39.00;101361.09;5113306;28;20059;-59
2022/03/21 10:14:34;;;;;;;20.30;14.50;;;;;;;15.12;38.75;101367.97;5113155;28;20050;-60
2022/03/21 10:17:09;;;;;;;18.70;14.27;;;;;;;15.22;38.29;101361.25;5113315;28;20055;-61
2022/03/21 10:19:52;;;;;;;22.17;14.43;;;;;;;15.31;38.31;101364.38;5111815;28;20567;-60
2022/03/21 10:22:43;;;;;;;18.65;13.40;;;;;;;15.43;39.24;101373.50;5113011;28;20051;-61
2022/03/21 10:25:17;;;;;;;21.17;14.30;;;;;;;15.60;38.65;101365.53;5113249;28;20514;-60
2022/03/21 10:27:46;;;;;;;21.20;15.27;;;;;;;15.72;38.88;101364.03;5111845;28;20476;-60
2022/03/21 10:30:16;;;;;;;20.20;14.80;;;;;;;15.83;38.88;101360.81;5111465;28;20487;-61
2022/03/21 10:32:44;;;;;;;22.95;13.77;;;;;;;15.95;38.74;101361.97;5111867;28;20055;-61
2022/03/21 10:35:10;;;;;;;20.23;15.27;;;;;;;16.08;39.05;101369.28;5112700;28;20047;-60
2022/03/21 10:37:41;;;;;;;18.50;14.57;;;;;;;16.20;37.58;101362.41;5112898;28;20048;-60
2022/03/21 10:40:30;;;;;;;20.05;15.10;;;;;;;16.32;37.67;101359.09;5112770;28;20549;-60
2022/03/21 10:42:59;;;;;;;19.10;14.32;;;;;;;16.51;38.45;101358.06;5112600;28;20047;-61
2022/03/21 10:45:35;;;;;;;19.63;14.98;;;;;;;16.62;37.23;101355.66;5112607;28;20437;-59
2022/03/21 10:48:07;;;;;;;19.45;14.02;;;;;;;16.78;38.03;101358.28;5112435;27;20457;-60
2022/03/21 10:50:37;;;;;;;22.30;15.02;;;;;;;16.95;38.55;101356.44;5110904;28;20092;-61
2022/03/21 10:53:15;;;;;;;24.60;16.27;;;;;;;17.08;37.02;101358.44;5112752;28;20137;-62
2022/03/21 10:55:47;;;;;;;20.55;15.55;;;;;;;17.23;36.89;101356.66;5112401;27;20048;-59
2022/03/21 10:58:17;;;;;;;21.75;14.75;;;;;;;17.36;37.07;101354.97;5112230;28;20047;-60
2022/03/21 11:00:43;;;;;;;19.35;14.38;;;;;;;17.48;37.41;101353.38;5111512;27;20055;-60
2022/03/21 11:03:15;;;;;;;22.42;16.48;;;;;;;17.58;36.18;101362.50;5111001;28;20100;-60
2022/03/21 11:05:47;;;;;;;21.13;15.80;;;;;;;17.70;37.21;101358.25;5112264;28;20134;-60
2022/03/21 11:08:17;;;;;;;21.60;16.00;;;;;;;17.81;37.07;101357.59;5112163;28;20117;-60
2022/03/21 11:10:45;;;;;;;24.33;16.15;;;;;;;17.92;36.27;101356.03;5110474;28;20517;-60
2022/03/21 11:13:12;;;;;;;21.80;17.10;;;;;;;18.04;36.52;101355.28;5111040;28;20112;-60
2022/03/21 11:15:42;;;;;;;25.42;16.75;;;;;;;18.18;37.32;101359.78;5112150;28;20067;-61
2022/03/21 11:18:10;;;;;;;19.65;15.55;;;;;;;18.36;37.85;101347.06;5110901;28;20056;-60
2022/03/21 11:20:37;;;;;;;21.73;15.07;;;;;;;18.65;37.83;101342.59;5111929;28;20043;-60
2022/03/21 11:23:05;;;;;;;19.92;15.45;;;;;;;19.03;38.83;101352.53;5112023;28;20056;-59
2022/03/21 11:25:34;;;;;;;19.02;15.15;;;;;;;19.54;38.57;101353.56;5111750;28;20055;-59
2022/03/21 11:29:00;;;;;;;17.92;14.63;;;;;;;20.24;36.88;101350.50;5110559;28;20043;-60
2022/03/21 11:31:47;;;;;;;16.73;13.60;;;;;;;21.18;36.30;101348.03;5035137;28;20131;-60
2022/03/21 11:34:48;;;;;;;16.70;14.13;;;;;;;22.07;35.55;101345.66;5108038;28;20052;-61
2022/03/21 11:37:27;;;;;;;16.52;13.10;;;;;;;22.93;34.21;101342.25;5110403;28;20048;-60